createdAt,value
2022-09-09T00:04:33.168Z,22.44
2022-09-09T00:09:43.151Z,22.71
2022-09-09T00:15:28.129Z,22.75
2022-09-09T00:20:27.198Z,22.67
2022-09-09T00:25:34.028Z,22.28
2022-09-09T00:30:35.807Z,22.46
2022-09-09T00:35:41.918Z,22.34
2022-09-09T00:41:03.059Z,22.54
2022-09-09T00:46:23.999Z,22.53
2022-09-09T00:51:38.785Z,22.46
2022-09-09T00:56:51.902Z,22.10
2022-09-09T01:01:53.493Z,22.09
2022-09-09T01:06:56.303Z,22.25
2022-09-09T01:12:18.053Z,22.44
2022-09-09T01:17:26.846Z,22.40
2022-09-09T01:22:44.418Z,22.21
2022-09-09T01:27:44.076Z,22.37
2022-09-09T01:32:47.316Z,22.16
2022-09-09T01:37:52.328Z,22.07
2022-09-09T01:42:51.455Z,21.94
2022-09-09T01:47:53.444Z,21.88
2022-09-09T01:53:00.787Z,21.83
2022-09-09T01:58:23.845Z,22.19
2022-09-09T02:03:35.049Z,22.29
2022-09-09T02:08:49.432Z,22.02
2022-09-09T02:13:55.203Z,22.10
2022-09-09T02:19:05.795Z,22.40
2022-09-09T02:24:17.485Z,21.91
2022-09-09T02:29:29.365Z,22.03
2022-09-09T02:34:31.687Z,22.23
2022-09-09T02:39:32.290Z,22.03
2022-09-09T02:44:31.865Z,21.78
2022-09-09T02:50:15.426Z,21.75
2022-09-09T02:55:29.010Z,21.83
2022-09-09T03:00:32.222Z,21.31
2022-09-09T03:05:34.160Z,21.40
2022-09-09T03:10:34.668Z,21.25
2022-09-09T03:15:33.979Z,21.20
2022-09-09T03:20:33.232Z,21.15
2022-09-09T03:25:34.969Z,21.04
2022-09-09T03:30:35.774Z,21.04
2022-09-09T03:35:38.067Z,21.45
2022-09-09T03:40:37.114Z,21.48
2022-09-09T03:45:41.654Z,21.38
2022-09-09T03:50:43.239Z,21.20
2022-09-09T03:55:44.488Z,21.07
2022-09-09T04:00:43.869Z,20.87
2022-09-09T04:05:45.984Z,21.20
2022-09-09T04:10:49.910Z,21.00
2022-09-09T04:15:54.058Z,21.06
2022-09-09T04:21:01.274Z,21.27
2022-09-09T04:26:03.193Z,20.99
2022-09-09T04:31:34.228Z,21.24
2022-09-09T04:36:37.403Z,21.20
2022-09-09T04:41:38.872Z,21.06
2022-09-09T04:46:38.040Z,21.12
2022-09-09T04:51:37.324Z,21.44
2022-09-09T04:56:44.437Z,21.41
2022-09-09T05:01:43.730Z,21.29
2022-09-09T05:06:44.241Z,21.74
2022-09-09T05:11:45.031Z,21.65
2022-09-09T05:16:54.368Z,21.67
2022-09-09T05:21:57.234Z,21.67
2022-09-09T05:27:03.664Z,21.77
2022-09-09T05:32:02.215Z,22.34
2022-09-09T05:37:03.697Z,21.89
2022-09-09T05:42:05.610Z,22.21
2022-09-09T05:47:05.347Z,22.23
2022-09-09T05:52:06.268Z,22.30
2022-09-09T05:57:09.238Z,22.63
2022-09-09T06:02:10.044Z,22.63
2022-09-09T06:07:12.482Z,22.61
2022-09-09T06:12:15.443Z,22.62
2022-09-09T06:17:16.303Z,22.86
2022-09-09T06:22:14.227Z,23.43
2022-09-09T06:27:16.673Z,23.35
2022-09-09T06:32:17.321Z,23.57
2022-09-09T06:37:20.344Z,23.71
2022-09-09T06:42:21.553Z,23.89
2022-09-09T06:47:48.522Z,24.30
2022-09-09T06:52:48.897Z,24.46
2022-09-09T06:57:46.709Z,24.77
2022-09-09T07:02:49.239Z,24.94
2022-09-09T07:07:49.316Z,25.24
2022-09-09T07:12:54.230Z,25.60
2022-09-09T07:17:55.074Z,25.44
2022-09-09T07:22:56.523Z,25.58
2022-09-09T07:27:58.500Z,25.63
2022-09-09T07:33:01.166Z,25.81
2022-09-09T07:38:07.753Z,26.03
2022-09-09T07:43:06.356Z,26.22
2022-09-09T07:48:06.367Z,26.43
2022-09-09T07:53:07.613Z,26.66
2022-09-09T07:58:06.210Z,27.09
2022-09-09T08:03:05.081Z,27.23
2022-09-09T08:08:04.844Z,27.12
2022-09-09T08:13:19.086Z,27.23
2022-09-09T08:18:19.863Z,27.63
2022-09-09T08:23:18.782Z,27.62
2022-09-09T08:28:19.248Z,27.70
2022-09-09T08:33:20.393Z,27.85
2022-09-09T08:38:25.504Z,28.06
2022-09-09T08:43:24.103Z,27.91
2022-09-09T08:48:53.524Z,28.18
2022-09-09T08:53:57.741Z,28.44
2022-09-09T08:59:03.935Z,28.53
2022-09-09T09:04:33.981Z,28.88
2022-09-09T09:10:00.541Z,28.71
2022-09-09T09:15:02.562Z,28.98
2022-09-09T09:20:06.252Z,29.24
2022-09-09T09:25:07.795Z,29.45
2022-09-09T09:30:29.868Z,29.65
2022-09-09T09:35:41.588Z,29.66
2022-09-09T09:40:56.399Z,29.92
2022-09-09T09:46:14.370Z,29.93
2022-09-09T09:51:21.645Z,30.09
2022-09-09T09:56:46.138Z,30.41
2022-09-09T10:01:45.674Z,30.30
2022-09-09T10:06:46.223Z,30.58
2022-09-09T10:12:06.955Z,30.87
2022-09-09T10:17:37.274Z,30.87
2022-09-09T10:22:39.922Z,30.86
2022-09-09T10:28:03.929Z,30.95
2022-09-09T10:33:40.703Z,31.13
2022-09-09T10:38:47.020Z,31.39
2022-09-09T10:44:06.207Z,31.55
2022-09-09T10:49:39.522Z,31.80
2022-09-09T10:55:17.675Z,31.79
2022-09-09T11:00:43.691Z,32.19
2022-09-09T11:05:49.573Z,32.12
2022-09-09T11:11:20.125Z,32.40
2022-09-09T11:17:02.740Z,32.35
2022-09-09T11:22:09.888Z,32.45
2022-09-09T11:27:22.021Z,32.57
2022-09-09T11:32:42.147Z,32.84
2022-09-09T11:38:40.042Z,32.70
2022-09-09T11:43:46.409Z,32.96
2022-09-09T11:48:59.911Z,33.09
2022-09-09T11:54:03.786Z,33.30
2022-09-09T11:59:23.275Z,32.92
2022-09-09T12:04:28.699Z,32.92
2022-09-09T12:09:47.635Z,33.14
2022-09-09T12:15:06.338Z,33.09
2022-09-09T12:20:17.228Z,33.27
2022-09-09T12:25:42.242Z,33.29
2022-09-09T12:31:14.720Z,33.14
2022-09-09T12:36:34.542Z,32.69
2022-09-09T12:41:36.021Z,32.86
2022-09-09T12:46:45.824Z,32.88
2022-09-09T12:51:47.122Z,33.04
2022-09-09T12:56:48.007Z,33.16
2022-09-09T13:01:58.114Z,33.05
2022-09-09T13:07:08.162Z,33.40
2022-09-09T13:12:08.396Z,33.64
2022-09-09T13:17:19.629Z,33.96
2022-09-09T13:22:25.817Z,34.00
2022-09-09T13:27:37.396Z,34.05
2022-09-09T13:32:35.463Z,34.73
2022-09-09T13:37:44.742Z,34.52
2022-09-09T13:42:43.815Z,33.86
2022-09-09T13:47:46.553Z,33.30
2022-09-09T13:52:52.943Z,32.59
2022-09-09T13:57:58.130Z,32.73
2022-09-09T14:02:59.016Z,32.11
2022-09-09T14:07:57.719Z,32.21
2022-09-09T14:12:57.215Z,32.09
2022-09-09T14:17:55.692Z,31.93
2022-09-09T14:23:03.343Z,31.77
2022-09-09T14:28:10.247Z,31.68
2022-09-09T14:33:12.886Z,31.55
2022-09-09T14:38:18.966Z,31.52
2022-09-09T14:43:23.812Z,31.33
2022-09-09T14:48:24.073Z,31.36
2022-09-09T14:53:24.249Z,31.11
2022-09-09T14:58:22.806Z,31.26
2022-09-09T15:03:23.207Z,31.05
2022-09-09T15:08:24.801Z,30.98
2022-09-09T15:13:35.700Z,30.73
2022-09-09T15:18:37.708Z,30.67
2022-09-09T15:23:39.205Z,30.68
2022-09-09T15:28:42.346Z,30.32
2022-09-09T15:33:43.484Z,30.23
2022-09-09T15:38:43.947Z,30.17
2022-09-09T15:43:53.004Z,29.84
2022-09-09T15:48:54.303Z,29.56
2022-09-09T15:53:59.499Z,29.61
2022-09-09T15:58:58.737Z,29.40
2022-09-09T16:03:57.715Z,29.45
2022-09-09T16:09:02.702Z,29.26
2022-09-09T16:14:05.203Z,29.13
2022-09-09T16:19:15.943Z,29.09
2022-09-09T16:24:19.995Z,28.96
2022-09-09T16:29:25.239Z,28.54
2022-09-09T16:34:26.989Z,28.41
2022-09-09T16:39:26.721Z,28.49
2022-09-09T16:44:32.273Z,28.45
2022-09-09T16:49:35.681Z,28.46
2022-09-09T16:54:38.446Z,28.47
2022-09-09T16:59:39.061Z,28.55
2022-09-09T17:04:38.439Z,28.46
2022-09-09T17:09:37.610Z,28.44
2022-09-09T17:14:35.962Z,28.30
2022-09-09T17:19:37.899Z,28.10
2022-09-09T17:24:39.724Z,28.06
2022-09-09T17:29:38.739Z,28.15
2022-09-09T17:34:40.384Z,27.91
2022-09-09T17:39:39.408Z,27.74
2022-09-09T17:44:41.229Z,27.91
2022-09-09T17:49:40.693Z,27.98
2022-09-09T17:54:42.661Z,27.95
2022-09-09T17:59:45.569Z,27.62
2022-09-09T18:04:47.521Z,27.85
2022-09-09T18:09:47.026Z,27.61
2022-09-09T18:14:47.278Z,27.28
2022-09-09T18:19:47.129Z,27.26
2022-09-09T18:24:48.682Z,27.44
2022-09-09T18:29:48.748Z,27.45
2022-09-09T18:34:47.123Z,27.60
2022-09-09T18:39:46.020Z,27.47
2022-09-09T18:44:44.648Z,27.39
2022-09-09T18:49:43.538Z,27.45
2022-09-09T18:54:46.082Z,27.19
2022-09-09T18:59:44.465Z,27.17
2022-09-09T19:04:42.966Z,27.19
2022-09-09T19:09:44.428Z,27.20
2022-09-09T19:14:45.582Z,26.97
2022-09-09T19:19:44.586Z,26.68
2022-09-09T19:24:46.077Z,26.77
2022-09-09T19:29:45.022Z,26.79
2022-09-09T19:34:44.248Z,26.53
2022-09-09T19:39:43.022Z,26.56
2022-09-09T19:44:44.247Z,26.64
2022-09-09T19:49:46.912Z,26.51
2022-09-09T19:54:45.874Z,26.66
2022-09-09T19:59:46.149Z,26.53
2022-09-09T20:04:44.953Z,26.38
2022-09-09T20:09:43.853Z,26.47
2022-09-09T20:14:42.573Z,26.70
2022-09-09T20:19:40.846Z,26.60
2022-09-09T20:24:39.033Z,26.75
2022-09-09T20:29:37.430Z,26.53
2022-09-09T20:34:38.372Z,26.41
2022-09-09T20:39:37.553Z,26.53
2022-09-09T20:44:35.879Z,26.30
2022-09-09T20:49:35.507Z,26.41
2022-09-09T20:54:37.934Z,26.05
2022-09-09T20:59:38.869Z,26.13
2022-09-09T21:04:38.911Z,26.06
2022-09-09T21:09:37.661Z,25.95
2022-09-09T21:14:36.367Z,25.92
2022-09-09T21:19:36.052Z,26.00
2022-09-09T21:24:36.582Z,25.82
2022-09-09T21:29:34.461Z,25.89
2022-09-09T21:34:35.108Z,25.77
2022-09-09T21:39:35.217Z,25.73
2022-09-09T21:44:34.238Z,25.57
2022-09-09T21:49:33.056Z,25.68
2022-09-09T21:54:31.861Z,25.72
2022-09-09T21:59:32.652Z,25.31
2022-09-09T22:04:31.597Z,25.08
2022-09-09T22:09:29.344Z,25.22
2022-09-09T22:14:28.170Z,25.09
2022-09-09T22:19:27.326Z,25.22
2022-09-09T22:24:29.014Z,25.11
2022-09-09T22:29:31.819Z,25.07
2022-09-09T22:34:32.503Z,24.81
2022-09-09T22:39:30.950Z,24.87
2022-09-09T22:44:29.990Z,24.72
2022-09-09T22:49:31.517Z,24.65
2022-09-09T22:54:32.629Z,24.50
2022-09-09T22:59:31.729Z,24.43
2022-09-09T23:04:30.721Z,24.48
2022-09-09T23:09:30.163Z,24.34
2022-09-09T23:14:29.410Z,24.19
2022-09-09T23:19:28.972Z,24.18
2022-09-09T23:24:26.760Z,24.16
2022-09-09T23:29:26.150Z,24.04
2022-09-09T23:34:25.585Z,24.02
2022-09-09T23:39:24.485Z,23.85
2022-09-09T23:44:23.904Z,23.90
2022-09-09T23:49:34.457Z,23.82
2022-09-09T23:54:34.523Z,23.86
2022-09-09T23:59:35.220Z,23.67
